createdAt,value
2023-02-23T00:01:47.027Z,9.48
2023-02-23T00:04:18.734Z,9.49
2023-02-23T00:06:47.917Z,9.49
2023-02-23T00:09:23.742Z,9.50
2023-02-23T00:11:54.039Z,9.51
2023-02-23T00:14:27.841Z,9.50
2023-02-23T00:16:56.941Z,9.50
2023-02-23T00:19:27.890Z,9.50
2023-02-23T00:21:58.926Z,9.49
2023-02-23T00:24:29.889Z,9.45
2023-02-23T00:26:59.202Z,9.47
2023-02-23T00:29:29.656Z,9.47
2023-02-23T00:31:59.611Z,9.47
2023-02-23T00:34:30.914Z,9.44
2023-02-23T00:37:00.906Z,9.46
2023-02-23T00:39:31.995Z,9.46
2023-02-23T00:42:03.920Z,9.46
2023-02-23T00:44:35.651Z,9.45
2023-02-23T00:47:05.102Z,9.45
2023-02-23T00:49:35.358Z,9.48
2023-02-23T00:52:06.408Z,9.46
2023-02-23T00:54:36.414Z,9.45
2023-02-23T00:57:06.393Z,9.43
2023-02-23T00:59:35.171Z,9.44
2023-02-23T01:02:05.285Z,9.45
2023-02-23T01:04:36.638Z,9.45
2023-02-23T01:07:06.713Z,9.47
2023-02-23T01:09:38.699Z,9.46
2023-02-23T01:12:08.704Z,9.47
2023-02-23T01:14:38.883Z,9.47
2023-02-23T01:17:08.558Z,9.47
2023-02-23T01:19:39.677Z,9.48
2023-02-23T01:22:10.423Z,9.47
2023-02-23T01:24:40.324Z,9.46
2023-02-23T01:27:09.271Z,9.46
2023-02-23T01:29:39.186Z,9.45
2023-02-23T01:32:09.642Z,9.46
2023-02-23T01:34:40.530Z,9.46
2023-02-23T01:37:10.546Z,9.48
2023-02-23T01:39:39.539Z,9.47
2023-02-23T01:42:14.667Z,9.48
2023-02-23T01:45:36.369Z,9.46
2023-02-23T01:48:13.054Z,9.47
2023-02-23T01:50:53.070Z,9.47
2023-02-23T01:53:23.457Z,9.49
2023-02-23T01:55:58.252Z,9.50
2023-02-23T01:58:30.849Z,9.46
2023-02-23T02:01:03.108Z,9.48
2023-02-23T02:03:40.052Z,9.49
2023-02-23T02:06:14.838Z,9.49
2023-02-23T02:08:50.918Z,9.49
2023-02-23T02:11:30.859Z,9.46
2023-02-23T02:14:03.779Z,9.46
2023-02-23T02:17:05.307Z,9.46
2023-02-23T02:20:28.740Z,9.45
2023-02-23T02:23:51.473Z,9.40
2023-02-23T02:26:36.115Z,9.37
2023-02-23T02:29:56.084Z,9.38
2023-02-23T02:32:57.834Z,9.40
2023-02-23T02:36:16.362Z,9.41
2023-02-23T02:39:08.527Z,9.40
2023-02-23T02:41:51.774Z,9.38
2023-02-23T02:44:32.866Z,9.32
2023-02-23T02:47:12.707Z,9.34
2023-02-23T02:49:52.992Z,9.35
2023-02-23T02:52:31.198Z,9.35
2023-02-23T02:55:12.767Z,9.34
2023-02-23T02:57:47.406Z,9.35
2023-02-23T03:00:39.519Z,9.34
2023-02-23T03:03:46.124Z,9.35
2023-02-23T03:06:33.174Z,9.35
2023-02-23T03:09:30.849Z,9.34
2023-02-23T03:12:35.151Z,9.31
2023-02-23T03:15:40.128Z,9.32
2023-02-23T03:18:47.987Z,9.30
2023-02-23T03:21:44.089Z,9.31
2023-02-23T03:24:46.400Z,9.27
2023-02-23T03:27:43.336Z,9.27
2023-02-23T03:30:41.840Z,9.29
2023-02-23T03:33:36.155Z,9.25
2023-02-23T03:36:31.958Z,9.27
2023-02-23T03:39:29.968Z,9.29
2023-02-23T03:42:21.607Z,9.25
2023-02-23T03:45:13.780Z,9.25
2023-02-23T03:48:04.125Z,9.28
2023-02-23T03:50:57.010Z,9.29
2023-02-23T03:53:54.238Z,9.30
2023-02-23T03:56:48.528Z,9.32
2023-02-23T03:59:44.931Z,9.34
2023-02-23T04:02:37.990Z,9.34
2023-02-23T04:05:35.422Z,9.36
2023-02-23T04:08:29.687Z,9.35
2023-02-23T04:11:31.430Z,9.37
2023-02-23T04:14:05.383Z,9.38
2023-02-23T04:16:34.804Z,9.38
2023-02-23T04:19:06.390Z,9.39
2023-02-23T04:21:35.752Z,9.38
2023-02-23T04:24:05.202Z,9.38
2023-02-23T04:26:35.144Z,9.39
2023-02-23T04:29:05.248Z,9.40
2023-02-23T04:31:35.145Z,9.40
2023-02-23T04:34:06.468Z,9.41
2023-02-23T04:36:35.520Z,9.41
2023-02-23T04:39:05.787Z,9.41
2023-02-23T04:41:36.224Z,9.41
2023-02-23T04:44:06.407Z,9.41
2023-02-23T04:46:35.800Z,9.41
2023-02-23T04:49:07.768Z,9.43
2023-02-23T04:51:38.803Z,9.42
2023-02-23T04:54:10.131Z,9.42
2023-02-23T04:56:40.940Z,9.42
2023-02-23T04:59:11.516Z,9.42
2023-02-23T05:01:40.533Z,9.42
2023-02-23T05:04:11.708Z,9.41
2023-02-23T05:06:43.500Z,9.42
2023-02-23T05:09:13.544Z,9.40
2023-02-23T05:11:42.428Z,9.39
2023-02-23T05:14:12.551Z,9.39
2023-02-23T05:16:42.757Z,9.37
2023-02-23T05:19:14.129Z,9.36
2023-02-23T05:21:44.743Z,9.34
2023-02-23T05:24:15.916Z,9.33
2023-02-23T05:26:46.939Z,9.33
2023-02-23T05:29:17.510Z,9.29
2023-02-23T05:31:49.478Z,9.29
2023-02-23T05:34:21.989Z,9.29
2023-02-23T05:36:52.710Z,9.29
2023-02-23T05:39:23.156Z,9.29
2023-02-23T05:41:53.169Z,9.28
2023-02-23T05:44:23.673Z,9.27
2023-02-23T05:46:53.027Z,9.27
2023-02-23T05:49:26.916Z,9.24
2023-02-23T05:51:57.795Z,9.23
2023-02-23T05:54:28.222Z,9.20
2023-02-23T05:56:59.361Z,9.16
2023-02-23T05:59:31.069Z,9.09
2023-02-23T06:02:00.832Z,9.02
2023-02-23T06:04:32.651Z,9.04
2023-02-23T06:07:01.880Z,9.01
2023-02-23T06:09:31.468Z,8.99
2023-02-23T06:12:01.718Z,8.94
2023-02-23T06:14:33.046Z,8.93
2023-02-23T06:17:02.865Z,8.90
2023-02-23T06:19:35.233Z,8.80
2023-02-23T06:22:05.148Z,8.78
2023-02-23T06:24:34.919Z,8.76
2023-02-23T06:27:05.392Z,8.69
2023-02-23T06:29:35.132Z,8.57
2023-02-23T06:32:05.101Z,8.57
2023-02-23T06:34:37.206Z,8.56
2023-02-23T06:37:09.292Z,8.55
2023-02-23T06:39:39.064Z,8.52
2023-02-23T06:42:08.714Z,8.49
2023-02-23T06:44:40.335Z,8.50
2023-02-23T06:47:11.619Z,8.46
2023-02-23T06:49:43.212Z,8.46
2023-02-23T06:52:13.607Z,8.44
2023-02-23T06:54:43.786Z,8.43
2023-02-23T06:57:13.887Z,8.39
2023-02-23T06:59:44.402Z,8.40
2023-02-23T07:02:14.987Z,8.40
2023-02-23T07:04:46.166Z,8.41
2023-02-23T07:07:15.996Z,8.43
2023-02-23T07:09:47.164Z,8.44
2023-02-23T07:12:17.332Z,8.45
2023-02-23T07:14:47.133Z,8.46
2023-02-23T07:17:18.549Z,8.49
2023-02-23T07:19:50.048Z,8.50
2023-02-23T07:22:20.071Z,8.50
2023-02-23T07:24:50.684Z,8.48
2023-02-23T07:27:21.331Z,8.49
2023-02-23T07:29:51.565Z,8.49
2023-02-23T07:32:21.346Z,8.50
2023-02-23T07:34:53.892Z,8.47
2023-02-23T07:37:24.289Z,8.49
2023-02-23T07:39:53.752Z,8.50
2023-02-23T07:42:23.218Z,8.53
2023-02-23T07:44:52.984Z,8.55
2023-02-23T07:47:30.896Z,8.58
2023-02-23T07:50:04.150Z,8.62
2023-02-23T07:52:34.637Z,8.62
2023-02-23T07:55:04.295Z,8.64
2023-02-23T07:57:33.862Z,8.65
2023-02-23T08:00:05.149Z,8.64
2023-02-23T08:02:35.446Z,8.64
2023-02-23T08:05:07.472Z,8.64
2023-02-23T08:07:36.919Z,8.68
2023-02-23T08:10:07.118Z,8.70
2023-02-23T08:12:37.815Z,8.76
2023-02-23T08:15:09.610Z,8.76
2023-02-23T08:17:42.086Z,8.80
2023-02-23T08:20:14.005Z,8.82
2023-02-23T08:22:49.756Z,8.86
2023-02-23T08:25:21.137Z,8.89
2023-02-23T08:27:52.565Z,8.92
2023-02-23T08:30:23.663Z,8.92
2023-02-23T08:32:53.968Z,8.95
2023-02-23T08:35:24.281Z,8.97
2023-02-23T08:37:54.008Z,9.01
2023-02-23T08:40:24.111Z,9.04
2023-02-23T08:42:53.139Z,9.06
2023-02-23T08:45:23.420Z,9.09
2023-02-23T08:47:53.392Z,9.12
2023-02-23T08:50:27.430Z,9.16
2023-02-23T08:52:57.221Z,9.20
2023-02-23T08:55:26.772Z,9.25
2023-02-23T08:57:55.710Z,9.31
2023-02-23T09:00:27.762Z,9.35
2023-02-23T09:02:57.634Z,9.33
2023-02-23T09:05:29.368Z,9.39
2023-02-23T09:08:00.054Z,9.43
2023-02-23T09:10:31.034Z,9.44
2023-02-23T09:13:01.663Z,9.48
2023-02-23T09:15:31.815Z,9.52
2023-02-23T09:18:03.506Z,9.55
2023-02-23T09:20:34.393Z,9.58
2023-02-23T09:23:04.270Z,9.63
2023-02-23T09:25:33.877Z,9.68
2023-02-23T09:28:03.968Z,9.72
2023-02-23T09:30:32.978Z,9.78
2023-02-23T09:33:03.572Z,9.83
2023-02-23T09:35:36.309Z,9.87
2023-02-23T09:38:08.575Z,9.89
2023-02-23T09:40:50.315Z,9.93
2023-02-23T09:43:30.907Z,9.95
2023-02-23T09:46:15.891Z,10.00
2023-02-23T09:48:45.969Z,10.03
2023-02-23T09:51:23.264Z,10.07
2023-02-23T09:53:56.888Z,10.10
2023-02-23T09:56:35.763Z,10.13
2023-02-23T09:59:08.098Z,10.14
2023-02-23T10:02:00.888Z,10.14
2023-02-23T10:04:36.492Z,10.17
2023-02-23T10:07:15.533Z,10.20
2023-02-23T10:10:15.347Z,10.23
2023-02-23T10:12:55.324Z,10.24
2023-02-23T10:15:36.050Z,10.28
2023-02-23T10:18:40.608Z,10.29
2023-02-23T10:21:23.157Z,10.32
2023-02-23T10:24:01.467Z,10.34
2023-02-23T10:26:41.460Z,10.35
2023-02-23T10:29:24.747Z,10.38
2023-02-23T10:32:02.342Z,10.40
2023-02-23T10:34:34.052Z,10.41
2023-02-23T10:37:07.517Z,10.38
2023-02-23T10:39:38.334Z,10.42
2023-02-23T10:42:13.821Z,10.38
2023-02-23T10:44:47.225Z,10.40
2023-02-23T10:47:22.348Z,10.41
2023-02-23T10:49:55.434Z,10.40
2023-02-23T10:52:41.668Z,10.43
2023-02-23T10:55:27.594Z,10.41
2023-02-23T10:58:17.396Z,10.44
2023-02-23T11:00:56.814Z,10.44
2023-02-23T11:03:31.033Z,10.44
2023-02-23T11:06:01.005Z,10.44
2023-02-23T11:08:34.296Z,10.43
2023-02-23T11:11:20.294Z,10.44
2023-02-23T11:13:51.989Z,10.44
2023-02-23T11:16:24.090Z,10.46
2023-02-23T11:18:57.147Z,10.47
2023-02-23T11:21:33.555Z,10.48
2023-02-23T11:24:16.738Z,10.50
2023-02-23T11:26:51.831Z,10.51
2023-02-23T11:29:34.074Z,10.54
2023-02-23T11:32:13.690Z,10.56
2023-02-23T11:34:45.272Z,10.52
2023-02-23T11:37:24.060Z,10.52
2023-02-23T11:39:57.411Z,10.52
2023-02-23T11:42:33.545Z,10.55
2023-02-23T11:45:08.406Z,10.56
2023-02-23T11:47:49.513Z,10.58
2023-02-23T11:50:33.123Z,10.60
2023-02-23T11:53:07.287Z,10.60
2023-02-23T11:55:40.147Z,10.63
2023-02-23T11:58:27.432Z,10.64
2023-02-23T12:01:02.462Z,10.67
2023-02-23T12:03:35.212Z,10.67
2023-02-23T12:06:05.518Z,10.71
2023-02-23T12:08:45.450Z,10.73
2023-02-23T12:11:24.675Z,10.74
2023-02-23T12:14:04.688Z,10.76
2023-02-23T12:16:43.289Z,10.80
2023-02-23T12:19:28.910Z,10.84
2023-02-23T12:22:07.746Z,10.84
2023-02-23T12:24:45.863Z,10.85
2023-02-23T12:27:23.814Z,10.84
2023-02-23T12:30:16.917Z,10.86
2023-02-23T12:32:53.857Z,10.88
2023-02-23T12:35:31.426Z,10.88
2023-02-23T12:38:12.364Z,10.86
2023-02-23T12:40:44.481Z,10.89
2023-02-23T12:43:23.433Z,10.95
2023-02-23T12:46:01.348Z,10.96
2023-02-23T12:48:44.572Z,10.94
2023-02-23T12:51:26.945Z,10.91
2023-02-23T12:53:56.448Z,10.93
2023-02-23T12:57:12.387Z,10.95
2023-02-23T13:00:36.193Z,10.92
2023-02-23T13:04:00.026Z,10.92
2023-02-23T13:06:40.559Z,10.93
2023-02-23T13:09:30.482Z,10.98
2023-02-23T13:12:28.343Z,11.00
2023-02-23T13:15:14.486Z,11.03
2023-02-23T13:17:55.918Z,11.05
2023-02-23T13:20:37.293Z,11.08
2023-02-23T13:23:22.418Z,11.09
2023-02-23T13:26:03.467Z,11.13
2023-02-23T13:28:50.644Z,11.17
2023-02-23T13:31:26.950Z,11.18
2023-02-23T13:34:02.090Z,11.22
2023-02-23T13:36:36.539Z,11.29
2023-02-23T13:39:57.572Z,11.36
2023-02-23T13:42:44.798Z,11.37
2023-02-23T13:45:38.419Z,11.42
2023-02-23T13:48:31.471Z,11.44
2023-02-23T13:51:10.651Z,11.42
2023-02-23T13:53:48.534Z,11.46
2023-02-23T13:56:21.489Z,11.48
2023-02-23T13:58:57.694Z,11.48
2023-02-23T14:01:33.842Z,11.53
2023-02-23T14:04:08.497Z,11.49
2023-02-23T14:06:37.549Z,11.47
2023-02-23T14:09:15.015Z,11.45
2023-02-23T14:11:49.382Z,11.45
2023-02-23T14:14:46.536Z,11.48
2023-02-23T14:17:57.187Z,11.48
2023-02-23T14:20:53.696Z,11.50
2023-02-23T14:23:38.609Z,11.51
2023-02-23T14:26:45.003Z,11.54
2023-02-23T14:30:17.598Z,11.52
2023-02-23T14:32:49.062Z,11.53
2023-02-23T14:35:45.463Z,11.52
2023-02-23T14:38:47.146Z,11.56
2023-02-23T14:41:24.280Z,11.59
2023-02-23T14:44:02.376Z,11.61
2023-02-23T14:46:32.697Z,11.63
2023-02-23T14:49:08.673Z,11.61
2023-02-23T14:51:45.456Z,11.60
2023-02-23T14:54:25.470Z,11.63
2023-02-23T14:56:58.528Z,11.68
2023-02-23T14:59:31.292Z,11.70
2023-02-23T15:02:08.858Z,11.69
2023-02-23T15:04:40.292Z,11.67
2023-02-23T15:07:18.872Z,11.68
2023-02-23T15:09:48.981Z,11.70
2023-02-23T15:12:27.595Z,11.71
2023-02-23T15:15:02.840Z,11.70
2023-02-23T15:17:37.094Z,11.72
2023-02-23T15:20:16.950Z,11.68
2023-02-23T15:22:54.315Z,11.67
2023-02-23T15:25:28.068Z,11.68
2023-02-23T15:27:58.002Z,11.67
2023-02-23T15:30:30.938Z,11.65
2023-02-23T15:33:08.503Z,11.69
2023-02-23T15:35:47.956Z,11.68
2023-02-23T15:38:42.404Z,11.70
2023-02-23T15:41:23.688Z,11.72
2023-02-23T15:43:53.677Z,11.73
2023-02-23T15:46:28.579Z,11.73
2023-02-23T15:49:05.318Z,11.72
2023-02-23T15:51:39.824Z,11.72
2023-02-23T15:54:20.282Z,11.72
2023-02-23T15:56:57.953Z,11.71
2023-02-23T15:59:35.566Z,11.70
2023-02-23T16:02:15.381Z,11.66
2023-02-23T16:04:49.389Z,11.69
2023-02-23T16:07:22.506Z,11.66
2023-02-23T16:09:58.376Z,11.66
2023-02-23T16:12:33.219Z,11.62
2023-02-23T16:15:15.464Z,11.61
2023-02-23T16:17:49.010Z,11.60
2023-02-23T16:20:29.939Z,11.61
2023-02-23T16:23:03.043Z,11.59
2023-02-23T16:25:34.603Z,11.52
2023-02-23T16:28:09.042Z,11.53
2023-02-23T16:30:44.125Z,11.50
2023-02-23T16:33:23.669Z,11.54
2023-02-23T16:36:06.122Z,11.51
2023-02-23T16:38:39.411Z,11.48
2023-02-23T16:41:16.812Z,11.43
2023-02-23T16:43:48.189Z,11.39
2023-02-23T16:46:19.031Z,11.38
2023-02-23T16:48:48.752Z,11.37
2023-02-23T16:51:23.547Z,11.35
2023-02-23T16:53:53.665Z,11.31
2023-02-23T16:56:24.116Z,11.29
2023-02-23T16:59:05.371Z,11.22
2023-02-23T17:01:36.565Z,11.21
2023-02-23T17:04:06.291Z,11.13
2023-02-23T17:06:37.821Z,11.06
2023-02-23T17:09:09.504Z,11.04
2023-02-23T17:11:40.488Z,11.01
2023-02-23T17:14:10.140Z,11.00
2023-02-23T17:16:41.508Z,11.01
2023-02-23T17:19:10.976Z,11.01
2023-02-23T17:21:40.838Z,10.97
2023-02-23T17:24:09.890Z,10.86
2023-02-23T17:26:40.319Z,10.87
2023-02-23T17:29:09.847Z,10.85
2023-02-23T17:31:40.911Z,10.86
2023-02-23T17:34:10.623Z,10.88
2023-02-23T17:36:40.877Z,10.83
2023-02-23T17:39:11.002Z,10.79
2023-02-23T17:41:40.791Z,10.74
2023-02-23T17:44:11.188Z,10.73
2023-02-23T17:46:41.452Z,10.72
2023-02-23T17:49:10.493Z,10.70
2023-02-23T17:51:39.981Z,10.65
2023-02-23T17:54:08.965Z,10.64
2023-02-23T17:56:39.110Z,10.66
2023-02-23T17:59:08.171Z,10.65
2023-02-23T18:01:37.709Z,10.63
2023-02-23T18:04:08.350Z,10.63
2023-02-23T18:06:37.350Z,10.63
2023-02-23T18:09:06.470Z,10.59
2023-02-23T18:11:37.002Z,10.56
2023-02-23T18:14:06.121Z,10.55
2023-02-23T18:16:36.780Z,10.57
2023-02-23T18:19:07.743Z,10.44
2023-02-23T18:21:40.978Z,10.45
2023-02-23T18:24:10.588Z,10.47
2023-02-23T18:26:39.799Z,10.49
2023-02-23T18:29:10.360Z,10.49
2023-02-23T18:31:40.384Z,10.42
2023-02-23T18:34:12.407Z,10.42
2023-02-23T18:36:43.565Z,10.41
2023-02-23T18:39:14.359Z,10.42
2023-02-23T18:41:45.416Z,10.41
2023-02-23T18:44:16.943Z,10.35
2023-02-23T18:46:47.740Z,10.37
2023-02-23T18:49:22.231Z,10.36
2023-02-23T18:51:51.431Z,10.35
2023-02-23T18:54:23.068Z,10.32
2023-02-23T18:56:53.681Z,10.32
2023-02-23T18:59:22.768Z,10.29
2023-02-23T19:01:52.752Z,10.27
2023-02-23T19:04:23.801Z,10.29
2023-02-23T19:06:53.257Z,10.28
2023-02-23T19:09:22.589Z,10.27
2023-02-23T19:11:52.230Z,10.24
2023-02-23T19:14:41.013Z,10.24
2023-02-23T19:17:11.711Z,10.17
2023-02-23T19:19:43.088Z,10.13
2023-02-23T19:22:12.501Z,10.13
2023-02-23T19:24:42.461Z,10.13
2023-02-23T19:27:11.400Z,10.08
2023-02-23T19:29:41.209Z,10.10
2023-02-23T19:32:11.418Z,10.09
2023-02-23T19:34:42.374Z,10.01
2023-02-23T19:37:12.602Z,9.97
2023-02-23T19:39:42.068Z,9.97
2023-02-23T19:42:15.802Z,9.97
2023-02-23T19:44:46.028Z,9.92
2023-02-23T19:47:14.466Z,9.92
2023-02-23T19:49:45.486Z,9.93
2023-02-23T19:52:14.902Z,9.89
2023-02-23T19:54:45.826Z,9.89
2023-02-23T19:57:14.658Z,9.84
2023-02-23T19:59:44.045Z,9.80
2023-02-23T20:02:13.874Z,9.82
2023-02-23T20:04:43.594Z,9.82
2023-02-23T20:07:15.203Z,9.85
2023-02-23T20:09:45.020Z,9.83
2023-02-23T20:12:15.057Z,9.81
2023-02-23T20:14:44.948Z,9.79
2023-02-23T20:17:14.788Z,9.78
2023-02-23T20:19:44.145Z,9.75
2023-02-23T20:22:14.971Z,9.77
2023-02-23T20:24:45.189Z,9.77
2023-02-23T20:27:14.724Z,9.77
2023-02-23T20:29:44.224Z,9.74
2023-02-23T20:32:13.839Z,9.68
2023-02-23T20:34:45.521Z,9.65
2023-02-23T20:37:16.971Z,9.63
2023-02-23T20:39:47.343Z,9.65
2023-02-23T20:42:18.486Z,9.66
2023-02-23T20:44:47.880Z,9.65
2023-02-23T20:47:17.942Z,9.68
2023-02-23T20:49:46.809Z,9.66
2023-02-23T20:52:16.753Z,9.67
2023-02-23T20:54:46.712Z,9.62
2023-02-23T20:57:16.138Z,9.61
2023-02-23T20:59:45.133Z,9.59
2023-02-23T21:02:16.352Z,9.58
2023-02-23T21:04:45.028Z,9.56
2023-02-23T21:07:16.422Z,9.58
2023-02-23T21:09:46.535Z,9.59
2023-02-23T21:12:15.587Z,9.53
2023-02-23T21:14:45.631Z,9.52
2023-02-23T21:17:15.094Z,9.49
2023-02-23T21:19:44.854Z,9.51
2023-02-23T21:22:17.021Z,9.47
2023-02-23T21:24:49.776Z,9.50
2023-02-23T21:27:18.724Z,9.48
2023-02-23T21:29:47.404Z,9.49
2023-02-23T21:32:17.512Z,9.48
2023-02-23T21:34:47.235Z,9.39
2023-02-23T21:37:16.185Z,9.36
2023-02-23T21:39:51.367Z,9.39
2023-02-23T21:42:24.655Z,9.30
2023-02-23T21:44:53.578Z,9.29
2023-02-23T21:47:22.226Z,9.31
2023-02-23T21:49:51.629Z,9.33
2023-02-23T21:52:22.227Z,9.34
2023-02-23T21:54:53.571Z,9.34
2023-02-23T21:57:25.058Z,9.33
2023-02-23T21:59:55.145Z,9.32
2023-02-23T22:02:24.238Z,9.22
2023-02-23T22:04:54.891Z,9.20
2023-02-23T22:07:24.918Z,9.22
2023-02-23T22:09:57.357Z,9.24
2023-02-23T22:12:27.575Z,9.26
2023-02-23T22:14:56.644Z,9.26
2023-02-23T22:17:26.349Z,9.25
2023-02-23T22:19:56.629Z,9.24
2023-02-23T22:22:26.022Z,9.21
2023-02-23T22:24:55.759Z,9.24
2023-02-23T22:27:26.854Z,9.26
2023-02-23T22:30:00.256Z,9.22
2023-02-23T22:32:33.428Z,9.15
2023-02-23T22:35:04.670Z,9.19
2023-02-23T22:37:34.864Z,9.20
2023-02-23T22:40:13.128Z,9.13
2023-02-23T22:42:45.600Z,9.18
2023-02-23T22:45:16.991Z,9.19
2023-02-23T22:47:46.028Z,9.22
2023-02-23T22:50:18.107Z,9.20
2023-02-23T22:52:48.266Z,9.20
2023-02-23T22:55:19.957Z,9.23
2023-02-23T22:57:49.573Z,9.18
2023-02-23T23:00:21.519Z,9.13
2023-02-23T23:02:51.181Z,9.16
2023-02-23T23:05:20.056Z,9.13
2023-02-23T23:07:50.651Z,9.09
2023-02-23T23:10:22.109Z,9.15
2023-02-23T23:12:51.063Z,9.08
2023-02-23T23:15:22.600Z,9.09
2023-02-23T23:17:54.660Z,9.12
2023-02-23T23:20:26.338Z,9.12
2023-02-23T23:22:57.282Z,9.10
2023-02-23T23:25:29.632Z,9.12
2023-02-23T23:27:58.658Z,9.12
2023-02-23T23:30:29.760Z,9.12
2023-02-23T23:33:01.185Z,9.06
2023-02-23T23:35:34.351Z,9.03
2023-02-23T23:38:03.835Z,9.06
2023-02-23T23:40:35.817Z,9.05
2023-02-23T23:43:07.753Z,9.08
2023-02-23T23:45:39.096Z,9.06
2023-02-23T23:48:10.380Z,9.04
2023-02-23T23:50:39.790Z,9.03
2023-02-23T23:53:09.470Z,9.06
2023-02-23T23:55:41.686Z,9.03
2023-02-23T23:58:11.681Z,9.06
